Time;durP1;ratioP1;P1;durP2;ratioP2;P2;SDS_P1;SDS_P2;PMS_P1;PMS_P2;Temp;Humidity;BMP_temperature;BMP_pressure;BME280_temperature;BME280_humidity;BME280_pressure;Samples;Min_cycle;Max_cycle;Signal;HPM_P1;HPM_P2
2020/12/08 00:01:22;;;;;;;5.30;2.38;;;;;;;;;;5092176;28;20020;-72
2020/12/08 00:03:48;;;;;;;4.00;2.35;;;;;;;;;;5091663;28;20016;-72
2020/12/08 00:06:14;;;;;;;5.15;2.88;;;;;;;;;;5091090;28;20358;-72
2020/12/08 00:08:40;;;;;;;3.47;2.03;;;;;;;;;;5091987;28;20081;-72
2020/12/08 00:11:06;;;;;;;3.42;1.80;;;;;;;;;;5091329;28;20086;-72
2020/12/08 00:13:32;;;;;;;2.95;1.85;;;;;;;;;;5093082;28;20032;-73
2020/12/08 00:15:59;;;;;;;3.40;2.03;;;;;;;;;;5077580;28;20024;-73
2020/12/08 00:18:25;;;;;;;3.28;2.20;;;;;;;;;;5095259;28;20053;-76
2020/12/08 00:20:51;;;;;;;3.90;2.42;;;;;;;;;;5095630;28;20040;-72
2020/12/08 00:23:17;;;;;;;5.95;2.35;;;;;;;;;;5077424;28;20035;-72
2020/12/08 00:25:43;;;;;;;4.63;2.45;;;;;;;;;;5096179;28;20449;-71
2020/12/08 00:28:09;;;;;;;3.47;1.83;;;;;;;;;;5095070;28;20380;-71
2020/12/08 00:30:35;;;;;;;5.47;2.20;;;;;;;;;;5077218;28;20115;-73
2020/12/08 00:33:01;;;;;;;4.03;2.35;;;;;;;;;;5095236;28;20039;-72
2020/12/08 00:35:27;;;;;;;3.30;1.90;;;;;;;;;;5094660;28;20058;-71
2020/12/08 00:37:53;;;;;;;3.97;2.50;;;;;;;;;;5095500;28;20532;-71
2020/12/08 00:40:19;;;;;;;2.78;1.80;;;;;;;;;;5094434;28;20426;-70
2020/12/08 00:42:45;;;;;;;3.72;2.05;;;;;;;;;;5094929;28;20019;-69
2020/12/08 00:45:12;;;;;;;5.65;2.42;;;;;;;;;;5095038;28;20095;-72
2020/12/08 00:47:38;;;;;;;8.63;3.00;;;;;;;;;;5094729;28;20814;-72
2020/12/08 00:50:05;;;;;;;3.80;2.03;;;;;;;;;;5095302;28;20035;-71
2020/12/08 00:52:32;;;;;;;4.15;2.03;;;;;;;;;;5095382;28;20080;-72
2020/12/08 00:54:58;;;;;;;4.15;1.88;;;;;;;;;;5094411;28;20123;-73
2020/12/08 00:57:24;;;;;;;4.40;2.00;;;;;;;;;;5094545;28;20043;-72
2020/12/08 00:59:50;;;;;;;3.55;1.92;;;;;;;;;;5094564;28;20469;-72
2020/12/08 01:02:17;;;;;;;3.35;1.98;;;;;;;;;;5094313;28;20031;-73
2020/12/08 01:04:43;;;;;;;4.55;2.00;;;;;;;;;;5094881;28;20331;-73
2020/12/08 01:07:10;;;;;;;4.10;2.30;;;;;;;;;;5094508;28;20099;-72
2020/12/08 01:09:36;;;;;;;4.28;1.70;;;;;;;;;;5093963;28;20052;-72
2020/12/08 01:12:03;;;;;;;3.47;2.30;;;;;;;;;;5094442;28;20035;-71
2020/12/08 01:14:29;;;;;;;3.42;2.20;;;;;;;;;;5076594;28;20024;-71
2020/12/08 01:16:59;;;;;;;3.55;2.13;;;;;;;;;;5093556;28;20070;-71
2020/12/08 01:19:25;;;;;;;4.10;2.10;;;;;;;;;;5076729;28;20377;-71
2020/12/08 01:21:55;;;;;;;2.58;1.60;;;;;;;;;;5094214;28;20477;-72
2020/12/08 01:24:21;;;;;;;3.40;1.85;;;;;;;;;;5093767;28;20054;-72
2020/12/08 01:26:47;;;;;;;2.15;1.30;;;;;;;;;;5094677;28;20020;-71
2020/12/08 01:29:13;;;;;;;2.75;1.55;;;;;;;;;;5094288;28;20045;-72
2020/12/08 01:31:40;;;;;;;3.83;2.28;;;;;;;;;;5075477;28;20493;-73
2020/12/08 01:34:07;;;;;;;4.60;2.20;;;;;;;;;;5094319;28;20032;-74
2020/12/08 01:36:33;;;;;;;1.85;1.58;;;;;;;;;;5075842;28;20032;-71
2020/12/08 01:38:59;;;;;;;3.00;1.65;;;;;;;;;;5093941;28;20031;-72
2020/12/08 01:41:26;;;;;;;2.55;1.60;;;;;;;;;;5094295;28;20041;-71
2020/12/08 01:43:54;;;;;;;2.97;1.60;;;;;;;;;;5094000;28;20024;-72
2020/12/08 01:46:21;;;;;;;4.78;2.45;;;;;;;;;;5093779;28;20542;-73
2020/12/08 01:48:48;;;;;;;3.00;1.75;;;;;;;;;;5094514;28;20466;-73
2020/12/08 01:51:17;;;;;;;2.42;1.83;;;;;;;;;;5093546;28;20031;-73
2020/12/08 01:53:44;;;;;;;3.75;1.90;;;;;;;;;;5093704;28;20039;-71
2020/12/08 01:56:12;;;;;;;3.90;2.08;;;;;;;;;;5093556;28;20039;-73
2020/12/08 01:58:38;;;;;;;5.00;2.00;;;;;;;;;;5093336;28;20020;-73
2020/12/08 02:01:05;;;;;;;2.22;1.88;;;;;;;;;;5075179;28;20054;-73
2020/12/08 02:03:31;;;;;;;3.72;1.70;;;;;;;;;;5092765;28;20016;-71
2020/12/08 02:05:57;;;;;;;4.47;1.58;;;;;;;;;;5093568;28;20024;-73
2020/12/08 02:08:30;;;;;;;2.78;2.20;;;;;;;;;;5093285;28;20051;-73
2020/12/08 02:10:56;;;;;;;2.40;1.73;;;;;;;;;;5093148;28;20131;-71
2020/12/08 02:13:22;;;;;;;2.55;1.65;;;;;;;;;;5093096;28;20031;-71
2020/12/08 02:15:48;;;;;;;3.05;1.77;;;;;;;;;;5092845;28;20493;-72
2020/12/08 02:18:14;;;;;;;2.80;1.70;;;;;;;;;;5092184;28;20024;-73
2020/12/08 02:20:41;;;;;;;5.40;2.00;;;;;;;;;;5092916;28;20042;-72
2020/12/08 02:23:07;;;;;;;3.53;1.75;;;;;;;;;;5092880;28;20019;-72
2020/12/08 02:25:33;;;;;;;2.53;1.73;;;;;;;;;;5092958;28;20023;-72
2020/12/08 02:27:59;;;;;;;2.75;1.80;;;;;;;;;;5075232;28;20031;-72
2020/12/08 02:30:25;;;;;;;3.63;1.90;;;;;;;;;;5092713;28;20134;-73
2020/12/08 02:32:51;;;;;;;3.25;1.77;;;;;;;;;;5092758;28;20040;-71
2020/12/08 02:35:17;;;;;;;3.55;2.38;;;;;;;;;;5092722;28;20042;-72
2020/12/08 02:37:44;;;;;;;3.22;1.90;;;;;;;;;;5092865;28;20024;-74
2020/12/08 02:40:10;;;;;;;3.00;1.77;;;;;;;;;;5093216;28;20038;-77
2020/12/08 02:42:36;;;;;;;5.18;2.38;;;;;;;;;;5092988;28;20028;-71
2020/12/08 02:45:02;;;;;;;4.90;3.08;;;;;;;;;;5092847;28;20024;-71
2020/12/08 02:47:28;;;;;;;4.53;2.92;;;;;;;;;;5074373;28;20469;-72
2020/12/08 02:49:54;;;;;;;4.32;2.38;;;;;;;;;;5092684;28;20385;-71
2020/12/08 02:52:23;;;;;;;3.38;2.35;;;;;;;;;;5074428;28;20020;-72
2020/12/08 02:54:50;;;;;;;6.07;2.40;;;;;;;;;;5092000;28;20082;-73
2020/12/08 02:57:16;;;;;;;6.90;3.55;;;;;;;;;;5092811;28;20016;-72
2020/12/08 02:59:43;;;;;;;8.75;2.92;;;;;;;;;;5092099;28;20112;-71
2020/12/08 03:02:09;;;;;;;3.05;2.10;;;;;;;;;;5092227;28;20486;-72
2020/12/08 03:04:35;;;;;;;1.95;1.70;;;;;;;;;;5092429;28;20024;-71
2020/12/08 03:07:01;;;;;;;3.50;2.13;;;;;;;;;;5092124;28;20027;-71
2020/12/08 03:09:27;;;;;;;3.05;1.70;;;;;;;;;;5091787;28;20091;-73
2020/12/08 03:11:53;;;;;;;3.97;1.85;;;;;;;;;;5092217;28;20036;-70
2020/12/08 03:14:19;;;;;;;3.45;1.90;;;;;;;;;;5092821;28;20053;-72
2020/12/08 03:16:45;;;;;;;3.60;1.92;;;;;;;;;;5093112;28;20031;-71
2020/12/08 03:19:11;;;;;;;2.40;1.80;;;;;;;;;;5093052;28;20028;-71
2020/12/08 03:21:38;;;;;;;3.40;2.05;;;;;;;;;;5092980;28;20032;-71
2020/12/08 03:24:04;;;;;;;2.95;1.92;;;;;;;;;;5093188;28;20017;-70
2020/12/08 03:26:30;;;;;;;3.97;2.10;;;;;;;;;;5093280;28;20054;-71
2020/12/08 03:28:57;;;;;;;2.92;2.28;;;;;;;;;;5092504;28;20027;-70
2020/12/08 03:31:23;;;;;;;2.70;1.73;;;;;;;;;;5092918;28;20036;-70
2020/12/08 03:33:49;;;;;;;2.88;2.00;;;;;;;;;;5092810;28;20085;-71
2020/12/08 03:36:18;;;;;;;2.83;1.95;;;;;;;;;;5092919;28;20050;-71
2020/12/08 03:38:44;;;;;;;4.40;2.45;;;;;;;;;;5093183;28;20378;-71
2020/12/08 03:41:10;;;;;;;4.28;2.42;;;;;;;;;;5093110;28;20024;-71
2020/12/08 03:43:36;;;;;;;3.63;2.13;;;;;;;;;;5092835;28;20043;-71
2020/12/08 03:46:03;;;;;;;2.65;1.70;;;;;;;;;;5092722;28;20020;-70
2020/12/08 03:48:29;;;;;;;4.68;2.50;;;;;;;;;;5096568;28;20136;-71
2020/12/08 03:50:55;;;;;;;4.05;2.10;;;;;;;;;;5096589;28;20036;-71
2020/12/08 03:53:21;;;;;;;4.07;2.13;;;;;;;;;;5097152;28;20077;-69
2020/12/08 03:55:47;;;;;;;5.70;2.05;;;;;;;;;;5097153;28;20020;-72
2020/12/08 03:58:13;;;;;;;2.80;2.08;;;;;;;;;;5096624;28;20016;-70
2020/12/08 04:00:39;;;;;;;4.20;2.22;;;;;;;;;;5096800;28;20028;-69
2020/12/08 04:03:05;;;;;;;4.45;2.55;;;;;;;;;;5096498;28;20385;-71
2020/12/08 04:05:31;;;;;;;4.20;2.50;;;;;;;;;;5096295;28;20103;-71
2020/12/08 04:07:57;;;;;;;5.32;2.38;;;;;;;;;;5096482;28;20411;-71
2020/12/08 04:10:23;;;;;;;4.47;2.20;;;;;;;;;;5095915;28;20047;-72
2020/12/08 04:12:49;;;;;;;4.18;2.33;;;;;;;;;;5096378;28;20028;-71
2020/12/08 04:15:15;;;;;;;4.07;2.90;;;;;;;;;;5078203;28;20517;-72
2020/12/08 04:17:41;;;;;;;7.85;3.30;;;;;;;;;;5095945;28;20342;-72
2020/12/08 04:20:07;;;;;;;4.43;2.38;;;;;;;;;;5096428;28;20381;-72
2020/12/08 04:22:34;;;;;;;4.60;2.33;;;;;;;;;;5096798;28;20024;-71
2020/12/08 04:25:00;;;;;;;7.03;2.58;;;;;;;;;;5096179;28;20028;-71
2020/12/08 04:27:26;;;;;;;5.15;2.65;;;;;;;;;;5096626;28;20051;-72
2020/12/08 04:29:52;;;;;;;3.88;2.45;;;;;;;;;;5077992;28;20023;-72
2020/12/08 04:32:18;;;;;;;4.95;2.72;;;;;;;;;;5095886;28;20024;-72
2020/12/08 04:34:44;;;;;;;6.30;3.55;;;;;;;;;;5096313;28;20024;-71
2020/12/08 04:37:11;;;;;;;6.45;3.50;;;;;;;;;;5096151;28;20035;-71
2020/12/08 04:39:37;;;;;;;6.15;3.47;;;;;;;;;;5095777;28;20362;-72
2020/12/08 04:42:03;;;;;;;7.97;3.40;;;;;;;;;;5096437;28;20043;-72
2020/12/08 04:44:30;;;;;;;5.70;3.85;;;;;;;;;;5095967;28;20031;-72
2020/12/08 04:46:56;;;;;;;6.35;3.28;;;;;;;;;;5095545;28;20373;-73
2020/12/08 04:49:23;;;;;;;6.25;3.30;;;;;;;;;;5095198;28;20453;-72
2020/12/08 04:51:49;;;;;;;9.40;4.40;;;;;;;;;;5095461;28;20047;-73
2020/12/08 04:54:15;;;;;;;12.82;4.28;;;;;;;;;;5095170;28;20024;-71
2020/12/08 04:56:44;;;;;;;6.68;3.95;;;;;;;;;;5095438;28;20091;-71
2020/12/08 04:59:19;;;;;;;7.45;3.90;;;;;;;;;;5095273;28;20020;-71
2020/12/08 05:01:45;;;;;;;8.60;5.00;;;;;;;;;;5075395;28;20028;-72
2020/12/08 05:04:11;;;;;;;8.65;4.22;;;;;;;;;;5095309;28;20534;-72
2020/12/08 05:06:37;;;;;;;11.15;5.65;;;;;;;;;;5095275;28;20120;-72
2020/12/08 05:09:04;;;;;;;9.15;4.18;;;;;;;;;;5095369;28;20048;-72
2020/12/08 05:11:31;;;;;;;8.55;5.28;;;;;;;;;;5095472;28;20032;-72
2020/12/08 05:14:01;;;;;;;7.10;4.50;;;;;;;;;;5095039;28;20020;-72
2020/12/08 05:16:27;;;;;;;9.32;4.40;;;;;;;;;;5095420;28;20369;-71
2020/12/08 05:18:53;;;;;;;7.18;4.32;;;;;;;;;;5077033;28;20051;-71
2020/12/08 05:21:19;;;;;;;7.18;4.25;;;;;;;;;;5094718;28;20027;-71
2020/12/08 05:23:46;;;;;;;10.93;6.25;;;;;;;;;;5095079;28;20016;-71
2020/12/08 05:26:12;;;;;;;10.25;4.20;;;;;;;;;;5095237;28;20062;-71
2020/12/08 05:28:39;;;;;;;7.00;3.90;;;;;;;;;;5094873;28;20028;-72
2020/12/08 05:31:05;;;;;;;7.43;3.97;;;;;;;;;;5094816;28;20032;-72
2020/12/08 05:33:31;;;;;;;10.05;5.40;;;;;;;;;;5094764;28;20019;-71
2020/12/08 05:35:58;;;;;;;7.50;4.25;;;;;;;;;;5094530;28;20488;-72
2020/12/08 05:38:34;;;;;;;6.93;3.25;;;;;;;;;;5095105;28;20044;-70
2020/12/08 05:41:01;;;;;;;5.55;3.15;;;;;;;;;;5095217;28;20028;-70
2020/12/08 05:43:30;;;;;;;5.57;3.33;;;;;;;;;;5094415;28;20047;-69
2020/12/08 05:45:56;;;;;;;6.35;3.70;;;;;;;;;;5094803;28;20477;-72
2020/12/08 05:48:22;;;;;;;7.53;4.28;;;;;;;;;;5094275;28;20024;-71
2020/12/08 05:50:48;;;;;;;9.75;4.45;;;;;;;;;;5094643;28;20028;-71
2020/12/08 05:53:19;;;;;;;9.48;3.90;;;;;;;;;;5094670;28;20024;-71
2020/12/08 05:55:45;;;;;;;6.93;4.05;;;;;;;;;;5093352;28;20504;-71
2020/12/08 05:58:12;;;;;;;10.98;5.32;;;;;;;;;;5093428;28;20020;-71
2020/12/08 06:00:40;;;;;;;14.50;6.55;;;;;;;;;;5094440;28;20056;-71
2020/12/08 06:03:12;;;;;;;27.00;8.48;;;;;;;;;;5092624;28;20012;-71
2020/12/08 06:05:39;;;;;;;21.58;8.60;;;;;;;;;;5094267;28;20028;-71
2020/12/08 06:08:31;;;;;;;26.50;9.15;;;;;;;;;;5093680;28;20095;-72
2020/12/08 06:10:57;;;;;;;28.35;9.98;;;;;;;;;;5087871;28;20048;-70
2020/12/08 06:13:23;;;;;;;21.90;8.75;;;;;;;;;;5075770;28;20073;-71
2020/12/08 06:15:50;;;;;;;18.40;8.05;;;;;;;;;;5076159;28;20077;-71
2020/12/08 06:18:16;;;;;;;22.20;9.23;;;;;;;;;;5093800;28;20059;-70
2020/12/08 06:20:42;;;;;;;16.95;7.60;;;;;;;;;;5093746;28;20016;-70
2020/12/08 06:23:08;;;;;;;22.52;5.80;;;;;;;;;;5093971;28;20351;-70
2020/12/08 06:25:34;;;;;;;10.93;5.47;;;;;;;;;;5093833;28;20032;-70
2020/12/08 06:28:01;;;;;;;13.82;5.63;;;;;;;;;;5094081;28;20031;-70
2020/12/08 06:30:30;;;;;;;18.73;6.20;;;;;;;;;;5093184;28;20481;-71
2020/12/08 06:32:57;;;;;;;11.75;6.57;;;;;;;;;;5093815;28;20035;-71
2020/12/08 06:35:23;;;;;;;18.15;8.30;;;;;;;;;;5093960;28;20146;-70
2020/12/08 06:37:50;;;;;;;17.75;7.50;;;;;;;;;;5093158;28;20012;-71
2020/12/08 06:40:17;;;;;;;17.50;7.78;;;;;;;;;;5075871;28;20020;-71
2020/12/08 06:42:45;;;;;;;17.95;9.40;;;;;;;;;;5093701;28;20024;-70
2020/12/08 06:45:12;;;;;;;16.55;7.53;;;;;;;;;;5093421;28;20028;-70
2020/12/08 06:47:39;;;;;;;20.52;9.13;;;;;;;;;;5093436;28;20469;-70
2020/12/08 06:50:06;;;;;;;19.98;9.40;;;;;;;;;;5093453;28;20473;-71
2020/12/08 06:52:33;;;;;;;18.83;9.60;;;;;;;;;;5093048;28;20470;-70
2020/12/08 06:55:00;;;;;;;20.85;10.95;;;;;;;;;;5093742;28;20043;-70
2020/12/08 06:57:27;;;;;;;20.85;9.90;;;;;;;;;;5093441;28;20028;-72
2020/12/08 07:00:04;;;;;;;21.08;9.15;;;;;;;;;;5092070;28;20013;-71
2020/12/08 07:02:31;;;;;;;19.23;9.82;;;;;;;;;;5090314;28;20028;-71
2020/12/08 07:05:00;;;;;;;31.33;13.88;;;;;;;;;;5092755;28;20020;-71
2020/12/08 07:07:27;;;;;;;24.40;9.23;;;;;;;;;;5092309;28;20089;-71
2020/12/08 07:09:53;;;;;;;24.38;8.27;;;;;;;;;;5093017;28;20481;-71
2020/12/08 07:12:19;;;;;;;14.38;7.05;;;;;;;;;;5092640;28;20024;-73
2020/12/08 07:14:45;;;;;;;13.35;7.40;;;;;;;;;;5091827;28;20028;-72
2020/12/08 07:17:11;;;;;;;11.57;5.88;;;;;;;;;;5088978;28;20031;-74
2020/12/08 07:19:39;;;;;;;15.52;7.85;;;;;;;;;;5085821;28;20032;-72
2020/12/08 07:22:08;;;;;;;12.50;6.65;;;;;;;;;;5085117;28;20028;-71
2020/12/08 07:24:41;;;;;;;14.02;8.10;;;;;;;;;;5072295;28;20458;-72
2020/12/08 07:27:08;;;;;;;15.02;7.65;;;;;;;;;;5092560;28;20353;-73
2020/12/08 07:29:34;;;;;;;19.95;10.77;;;;;;;;;;5092837;28;20148;-73
2020/12/08 07:32:00;;;;;;;26.00;10.70;;;;;;;;;;5092935;28;20032;-70
2020/12/08 07:34:26;;;;;;;22.38;10.00;;;;;;;;;;5090655;28;20497;-73
2020/12/08 07:36:52;;;;;;;40.83;13.18;;;;;;;;;;5092979;28;20387;-73
2020/12/08 07:39:19;;;;;;;29.63;15.20;;;;;;;;;;5092698;28;20016;-72
2020/12/08 07:41:45;;;;;;;23.25;11.57;;;;;;;;;;5092966;28;20024;-71
2020/12/08 07:44:12;;;;;;;28.63;12.80;;;;;;;;;;5092920;28;20381;-72
2020/12/08 07:46:38;;;;;;;29.85;14.10;;;;;;;;;;5081353;28;20027;-72
2020/12/08 07:49:04;;;;;;;37.97;12.30;;;;;;;;;;5092772;28;20024;-71
2020/12/08 07:51:31;;;;;;;22.50;11.18;;;;;;;;;;5091116;28;20077;-72
2020/12/08 07:53:59;;;;;;;27.95;12.68;;;;;;;;;;5092974;28;20076;-72
2020/12/08 07:56:29;;;;;;;30.50;11.35;;;;;;;;;;5091804;28;20068;-73
2020/12/08 07:58:56;;;;;;;28.10;12.95;;;;;;;;;;5087170;28;20032;-74
2020/12/08 08:01:22;;;;;;;30.38;11.48;;;;;;;;;;5091086;28;20023;-72
2020/12/08 08:03:48;;;;;;;18.85;9.48;;;;;;;;;;5092718;28;20458;-72
2020/12/08 08:06:18;;;;;;;20.38;9.43;;;;;;;;;;5073417;28;20036;-72
2020/12/08 08:08:45;;;;;;;22.13;9.30;;;;;;;;;;5092053;28;20377;-72
2020/12/08 08:11:11;;;;;;;16.02;8.88;;;;;;;;;;5092741;28;20385;-70
2020/12/08 08:13:37;;;;;;;21.58;8.25;;;;;;;;;;5073739;28;20028;-72
2020/12/08 08:16:03;;;;;;;21.08;9.07;;;;;;;;;;5092338;28;20016;-73
2020/12/08 08:18:31;;;;;;;16.27;9.48;;;;;;;;;;5092086;28;20343;-72
2020/12/08 08:20:58;;;;;;;17.05;8.27;;;;;;;;;;5092516;28;20028;-72
2020/12/08 08:23:24;;;;;;;15.68;9.25;;;;;;;;;;5085217;28;20020;-73
2020/12/08 08:25:50;;;;;;;13.45;7.72;;;;;;;;;;5091647;28;20020;-72
2020/12/08 08:28:17;;;;;;;18.95;8.75;;;;;;;;;;5092575;28;20043;-75
2020/12/08 08:30:43;;;;;;;16.52;8.90;;;;;;;;;;5091866;28;20063;-74
2020/12/08 08:33:09;;;;;;;19.70;9.65;;;;;;;;;;5092431;28;20476;-71
2020/12/08 08:35:35;;;;;;;22.45;11.07;;;;;;;;;;5095178;28;20028;-71
2020/12/08 08:38:01;;;;;;;18.15;11.05;;;;;;;;;;5095810;28;20051;-73
2020/12/08 08:40:27;;;;;;;23.55;12.60;;;;;;;;;;5094780;28;20088;-74
2020/12/08 08:42:55;;;;;;;16.73;8.00;;;;;;;;;;5094567;28;20024;-71
2020/12/08 08:45:22;;;;;;;13.48;7.63;;;;;;;;;;5089419;28;20048;-70
2020/12/08 08:47:48;;;;;;;12.48;7.40;;;;;;;;;;5093205;28;20085;-72
2020/12/08 08:50:14;;;;;;;14.65;7.85;;;;;;;;;;5096060;28;20043;-71
2020/12/08 08:52:40;;;;;;;12.52;6.95;;;;;;;;;;5093772;28;20172;-72
2020/12/08 08:55:08;;;;;;;12.90;6.30;;;;;;;;;;5077815;28;20539;-73
2020/12/08 08:57:35;;;;;;;14.82;7.35;;;;;;;;;;5077384;28;20512;-71
2020/12/08 09:00:01;;;;;;;8.93;4.88;;;;;;;;;;5095978;28;20027;-74
2020/12/08 09:02:27;;;;;;;16.02;8.32;;;;;;;;;;5095028;28;20095;-72
2020/12/08 09:04:53;;;;;;;17.33;8.50;;;;;;;;;;5087432;28;20032;-71
2020/12/08 09:07:19;;;;;;;15.75;8.00;;;;;;;;;;5095583;28;20022;-73
2020/12/08 09:09:45;;;;;;;7.53;4.95;;;;;;;;;;5095088;28;20036;-74
2020/12/08 09:12:11;;;;;;;9.27;4.90;;;;;;;;;;5076972;28;20104;-73
2020/12/08 09:14:37;;;;;;;9.93;5.25;;;;;;;;;;5095180;28;20024;-72
2020/12/08 09:17:03;;;;;;;9.75;5.65;;;;;;;;;;5094675;28;20377;-73
2020/12/08 09:19:29;;;;;;;9.88;4.47;;;;;;;;;;5094382;28;20062;-73
2020/12/08 09:21:55;;;;;;;14.13;6.50;;;;;;;;;;5095147;28;20089;-73
2020/12/08 09:24:21;;;;;;;9.80;5.43;;;;;;;;;;5095279;28;20528;-73
2020/12/08 09:26:48;;;;;;;8.05;4.55;;;;;;;;;;5094539;28;20466;-73
2020/12/08 09:29:14;;;;;;;10.73;4.72;;;;;;;;;;5093678;28;20411;-73
2020/12/08 09:31:42;;;;;;;11.35;5.38;;;;;;;;;;5094301;28;20176;-73
2020/12/08 09:34:09;;;;;;;7.75;4.03;;;;;;;;;;5094305;28;20114;-73
2020/12/08 09:36:35;;;;;;;10.40;5.38;;;;;;;;;;5094733;28;20024;-72
2020/12/08 09:39:01;;;;;;;6.93;4.32;;;;;;;;;;5094771;28;20016;-73
2020/12/08 09:41:27;;;;;;;9.00;5.38;;;;;;;;;;5094655;28;20028;-72
2020/12/08 09:43:54;;;;;;;9.55;4.63;;;;;;;;;;5094955;28;20028;-71
2020/12/08 09:46:20;;;;;;;13.18;6.15;;;;;;;;;;5094452;28;20015;-70
2020/12/08 09:48:46;;;;;;;11.77;5.20;;;;;;;;;;5094741;28;20027;-72
2020/12/08 09:51:12;;;;;;;8.48;4.43;;;;;;;;;;5094490;28;20107;-71
2020/12/08 09:53:39;;;;;;;5.93;3.50;;;;;;;;;;5076706;28;20036;-72
2020/12/08 09:56:05;;;;;;;9.77;4.20;;;;;;;;;;5094421;28;20027;-74
2020/12/08 09:58:31;;;;;;;7.82;5.00;;;;;;;;;;5094422;28;20137;-71
2020/12/08 10:00:57;;;;;;;6.25;3.88;;;;;;;;;;5093837;28;20028;-72
2020/12/08 10:03:23;;;;;;;4.75;3.30;;;;;;;;;;5094566;28;20457;-72
2020/12/08 10:05:49;;;;;;;4.85;3.40;;;;;;;;;;5094282;28;20501;-72
2020/12/08 10:08:15;;;;;;;11.07;5.20;;;;;;;;;;5094024;28;20019;-72
2020/12/08 10:10:41;;;;;;;12.43;5.15;;;;;;;;;;5094380;28;20051;-72
2020/12/08 10:13:07;;;;;;;8.50;4.72;;;;;;;;;;5094366;28;20028;-71
2020/12/08 10:15:33;;;;;;;7.75;4.03;;;;;;;;;;5093716;28;20373;-71
2020/12/08 10:17:59;;;;;;;4.47;3.25;;;;;;;;;;5093933;28;20028;-72
2020/12/08 10:20:26;;;;;;;7.18;3.80;;;;;;;;;;5093657;28;20476;-72
2020/12/08 10:22:52;;;;;;;7.90;3.50;;;;;;;;;;5094173;28;20016;-71
2020/12/08 10:25:18;;;;;;;5.85;3.55;;;;;;;;;;5093949;28;20376;-71
2020/12/08 10:27:44;;;;;;;12.70;5.45;;;;;;;;;;5094068;28;20472;-70
2020/12/08 10:30:11;;;;;;;13.93;7.55;;;;;;;;;;5093626;28;20024;-70
2020/12/08 10:32:37;;;;;;;10.10;5.07;;;;;;;;;;5094053;28;20035;-71
2020/12/08 10:35:03;;;;;;;9.95;5.00;;;;;;;;;;5093999;28;20031;-72
2020/12/08 10:37:29;;;;;;;6.63;4.35;;;;;;;;;;5093481;28;20090;-74
2020/12/08 10:39:55;;;;;;;10.88;5.40;;;;;;;;;;5094001;28;20028;-71
2020/12/08 10:42:21;;;;;;;8.45;3.75;;;;;;;;;;5093583;28;20032;-70
2020/12/08 10:44:47;;;;;;;12.73;6.70;;;;;;;;;;5093952;28;20043;-72
2020/12/08 10:47:13;;;;;;;7.00;4.32;;;;;;;;;;5093728;28;20024;-73
2020/12/08 10:49:39;;;;;;;6.10;4.18;;;;;;;;;;5092782;28;20039;-72
2020/12/08 10:52:05;;;;;;;6.00;3.85;;;;;;;;;;5093555;28;20081;-72
2020/12/08 10:54:31;;;;;;;9.60;4.50;;;;;;;;;;5093281;28;20043;-73
2020/12/08 10:56:57;;;;;;;11.25;5.47;;;;;;;;;;5092790;28;20077;-71
2020/12/08 10:59:23;;;;;;;16.30;6.22;;;;;;;;;;5093273;28;20032;-71
2020/12/08 11:01:50;;;;;;;13.20;5.72;;;;;;;;;;5093399;28;20482;-71
2020/12/08 11:04:16;;;;;;;10.88;5.38;;;;;;;;;;5093533;28;20032;-74
2020/12/08 11:06:45;;;;;;;4.85;3.30;;;;;;;;;;5093032;28;20365;-72
2020/12/08 11:09:11;;;;;;;9.73;5.50;;;;;;;;;;5093278;28;20048;-72
2020/12/08 11:11:37;;;;;;;8.63;5.18;;;;;;;;;;5092741;28;20047;-74
2020/12/08 11:14:03;;;;;;;7.72;3.60;;;;;;;;;;5093319;28;20055;-73
2020/12/08 11:16:29;;;;;;;12.55;5.00;;;;;;;;;;5093016;28;20024;-72
2020/12/08 11:18:56;;;;;;;8.82;4.30;;;;;;;;;;5092807;28;20035;-72
2020/12/08 11:21:23;;;;;;;6.18;3.95;;;;;;;;;;5093115;28;20058;-73
2020/12/08 11:23:49;;;;;;;6.32;4.10;;;;;;;;;;5093173;28;20032;-71
2020/12/08 11:26:15;;;;;;;9.00;4.82;;;;;;;;;;5074871;28;20024;-71
2020/12/08 11:28:42;;;;;;;8.25;3.67;;;;;;;;;;5092763;28;20028;-73
2020/12/08 11:31:08;;;;;;;5.82;3.95;;;;;;;;;;5092793;28;20032;-72
2020/12/08 11:33:34;;;;;;;9.02;4.43;;;;;;;;;;5092311;28;20099;-71
2020/12/08 11:36:00;;;;;;;5.82;3.55;;;;;;;;;;5074373;28;20055;-71
2020/12/08 11:38:26;;;;;;;7.72;4.20;;;;;;;;;;5092098;28;20078;-71
2020/12/08 11:40:53;;;;;;;5.63;2.90;;;;;;;;;;5092693;28;20461;-72
2020/12/08 11:43:19;;;;;;;7.32;3.45;;;;;;;;;;5093362;28;20051;-71
2020/12/08 11:45:46;;;;;;;5.95;4.55;;;;;;;;;;5074692;28;20430;-71
2020/12/08 11:48:13;;;;;;;8.70;5.00;;;;;;;;;;5093164;28;20031;-72
2020/12/08 11:50:39;;;;;;;10.30;5.07;;;;;;;;;;5092799;28;20043;-72
2020/12/08 11:53:05;;;;;;;10.43;5.38;;;;;;;;;;5060195;28;20029;-71
2020/12/08 11:55:31;;;;;;;10.60;5.88;;;;;;;;;;5073463;28;20035;-71
2020/12/08 11:57:57;;;;;;;17.23;7.10;;;;;;;;;;5087012;28;20016;-71
2020/12/08 12:00:23;;;;;;;15.43;9.02;;;;;;;;;;5073601;28;20029;-71
2020/12/08 12:02:49;;;;;;;14.20;7.60;;;;;;;;;;5072833;28;20024;-71
2020/12/08 12:05:15;;;;;;;10.07;6.03;;;;;;;;;;5074692;28;20024;-72
2020/12/08 12:07:42;;;;;;;7.20;4.30;;;;;;;;;;5076168;28;20094;-71
2020/12/08 12:10:08;;;;;;;9.85;5.40;;;;;;;;;;5086143;28;20050;-72
2020/12/08 12:12:34;;;;;;;5.13;3.53;;;;;;;;;;5075017;28;20024;-73
2020/12/08 12:15:00;;;;;;;9.63;4.53;;;;;;;;;;5076976;28;20068;-71
2020/12/08 12:17:26;;;;;;;9.02;4.63;;;;;;;;;;5089588;28;20028;-72
2020/12/08 12:19:53;;;;;;;10.27;4.35;;;;;;;;;;5096570;28;20028;-71
2020/12/08 12:22:19;;;;;;;7.07;4.18;;;;;;;;;;5096221;28;20050;-72
2020/12/08 12:24:45;;;;;;;7.97;4.88;;;;;;;;;;5096289;28;20016;-74
2020/12/08 12:27:11;;;;;;;8.80;4.75;;;;;;;;;;5096197;28;20105;-73
2020/12/08 12:29:37;;;;;;;10.82;6.05;;;;;;;;;;5096170;28;20008;-71
2020/12/08 12:32:03;;;;;;;19.95;9.68;;;;;;;;;;5096077;28;20115;-71
2020/12/08 12:34:29;;;;;;;13.90;6.53;;;;;;;;;;5084759;28;20031;-70
2020/12/08 12:36:57;;;;;;;8.82;5.03;;;;;;;;;;5074743;28;20028;-73
2020/12/08 12:39:23;;;;;;;6.40;4.55;;;;;;;;;;5079241;28;20023;-71
2020/12/08 12:41:49;;;;;;;13.25;6.88;;;;;;;;;;5084055;28;20039;-72
2020/12/08 12:44:15;;;;;;;15.07;7.32;;;;;;;;;;5084210;28;20032;-70
2020/12/08 12:46:41;;;;;;;12.88;6.30;;;;;;;;;;5095494;28;20023;-70
2020/12/08 12:49:07;;;;;;;7.20;4.30;;;;;;;;;;5079454;28;20028;-72
2020/12/08 12:51:33;;;;;;;16.60;8.98;;;;;;;;;;5074282;28;20052;-70
2020/12/08 12:53:59;;;;;;;8.15;3.33;;;;;;;;;;5072202;28;20036;-72
2020/12/08 12:56:26;;;;;;;25.65;11.35;;;;;;;;;;5094294;28;20054;-70
2020/12/08 12:58:53;;;;;;;33.92;14.82;;;;;;;;;;5095219;28;20093;-70
2020/12/08 13:01:20;;;;;;;33.28;12.00;;;;;;;;;;5095183;28;20107;-71
2020/12/08 13:03:46;;;;;;;35.90;13.93;;;;;;;;;;5095044;28;20016;-72
2020/12/08 13:06:13;;;;;;;32.58;14.55;;;;;;;;;;5095368;28;20476;-71
2020/12/08 13:08:40;;;;;;;31.55;14.38;;;;;;;;;;5096104;28;20491;-71
2020/12/08 13:11:10;;;;;;;10.70;6.15;;;;;;;;;;5094660;28;20101;-72
2020/12/08 13:13:36;;;;;;;15.10;6.95;;;;;;;;;;5094403;28;20024;-71
2020/12/08 13:16:06;;;;;;;7.85;4.18;;;;;;;;;;5074029;28;20111;-71
2020/12/08 13:18:32;;;;;;;6.70;4.43;;;;;;;;;;5076419;28;20020;-74
2020/12/08 13:20:59;;;;;;;8.23;4.63;;;;;;;;;;5094527;28;20024;-73
2020/12/08 13:23:25;;;;;;;14.00;6.32;;;;;;;;;;5075400;28;20059;-74
2020/12/08 13:25:52;;;;;;;7.88;4.78;;;;;;;;;;5093975;28;20028;-72
2020/12/08 13:28:18;;;;;;;8.05;4.35;;;;;;;;;;5094309;28;20020;-71
2020/12/08 13:30:45;;;;;;;5.80;3.47;;;;;;;;;;5093471;28;20039;-70
2020/12/08 13:33:11;;;;;;;6.65;4.40;;;;;;;;;;5094657;28;20031;-72
2020/12/08 13:35:37;;;;;;;7.35;4.10;;;;;;;;;;5094137;28;20031;-72
2020/12/08 13:38:03;;;;;;;8.07;4.13;;;;;;;;;;5093653;28;20066;-72
2020/12/08 13:40:29;;;;;;;8.98;4.88;;;;;;;;;;5094023;28;20027;-72
2020/12/08 13:42:55;;;;;;;9.70;5.65;;;;;;;;;;5093873;28;20020;-71
2020/12/08 13:45:21;;;;;;;6.68;4.65;;;;;;;;;;5093311;28;20019;-72
2020/12/08 13:47:47;;;;;;;8.80;4.72;;;;;;;;;;5093944;28;20429;-73
2020/12/08 13:50:13;;;;;;;9.07;3.58;;;;;;;;;;5076101;28;20426;-72
2020/12/08 13:52:40;;;;;;;6.95;3.33;;;;;;;;;;5093353;28;20060;-70
2020/12/08 13:55:06;;;;;;;6.53;4.35;;;;;;;;;;5094143;28;20347;-74
2020/12/08 13:57:32;;;;;;;6.97;4.70;;;;;;;;;;5093931;28;20022;-72
2020/12/08 13:59:58;;;;;;;7.70;4.60;;;;;;;;;;5071878;28;20032;-71
2020/12/08 14:02:24;;;;;;;11.88;6.43;;;;;;;;;;5091770;28;20056;-71
2020/12/08 14:04:50;;;;;;;11.50;5.28;;;;;;;;;;5093862;28;20020;-72
2020/12/08 14:07:19;;;;;;;8.30;3.90;;;;;;;;;;5093375;28;20020;-71
2020/12/08 14:09:49;;;;;;;10.90;5.60;;;;;;;;;;5093760;28;20079;-71
2020/12/08 14:12:15;;;;;;;12.95;6.53;;;;;;;;;;5065017;28;20393;-71
2020/12/08 14:14:41;;;;;;;13.60;7.20;;;;;;;;;;5093327;28;20469;-72
2020/12/08 14:17:08;;;;;;;8.10;5.03;;;;;;;;;;5093125;28;20051;-74
2020/12/08 14:19:34;;;;;;;7.78;4.28;;;;;;;;;;5086827;28;20027;-73
2020/12/08 14:22:01;;;;;;;9.73;5.10;;;;;;;;;;5078565;28;20481;-71
2020/12/08 14:24:29;;;;;;;11.05;5.28;;;;;;;;;;5093427;28;20016;-71
2020/12/08 14:26:55;;;;;;;9.88;5.22;;;;;;;;;;5092860;28;20036;-70
2020/12/08 14:29:22;;;;;;;8.95;5.22;;;;;;;;;;5093202;28;20020;-71
2020/12/08 14:31:48;;;;;;;11.82;5.55;;;;;;;;;;5089673;28;20377;-71
2020/12/08 14:34:14;;;;;;;9.48;5.20;;;;;;;;;;5090176;28;20374;-71